KMWC/MWC METAR and TAF weather

Enter ICAO airport designator
Station Type Date Time Source
KMWC METAR 2021/09/24 05:35 UTC NOAA

KMWC 240535Z AUTO 28007KT 10SM CLR 12/06 A2991 RMK AO2


Station Type Date Time Source
KMWC Decoded METAR 2021/09/24 05:35 UTC NOAA

Milwaukee / Timmerman, WI, United States (KMWC) 43-07N 088-02W
Sep 24, 2021 - 01:35 AM EDT / 2021.09.24 0535 UTC
Wind: from the W (280 degrees) at 8 MPH (7 KT):0
Visibility: 10 mile(s):0
Sky conditions: clear
Temperature: 53 F (12 C)
Dew Point: 42 F (6 C)
Relative Humidity: 66%
Pressure (altimeter): 29.91 in. Hg (1012 hPa)
ob: KMWC 240535Z AUTO 28007KT 10SM CLR 12/06 A2991 RMK AO2
cycle: 5

Station Type Date Time Source
KMWC TAF UTC NOAA

Error!

Example: see airport list